KCZT

Details ICAO KCZT
Name DIMMIT CO
Region United States
Timezone America/Chicago (UTC-5.0)
Plans Departing 1
Arriving 2
Stats Elevation 599 ft / 183 m (AMSL)
Location 28.522250° -99.823634°
Runways 1
Magnetic Variation 4.893° E
Sunrise 2018-05-25 11:45:24 UTC / 2018-05-25 06:45:24 Local
Sunset 2018-05-26 01:29:59 UTC / 2018-05-25 20:29:59 Local
Advertisement - Login to hide

Runways

ID Width Length Bearing (true) Bearing (mag) Surface Threshold Offset Overrun Length
13 75 ft / 23 m 5,002 ft / 1,525 m 134.13° 129.24° Asphalt 0 ft / 0 m 0 ft / 0 m
31 75 ft / 23 m 5,002 ft / 1,525 m 314.13° 309.24° Asphalt 0 ft / 0 m 0 ft / 0 m

Map

Weather


0- 5 10 15 20 25 30 35+ Temperature / ° C

Clouds and Precipitation
Forecast for 2018-05-25 06:00 UTC. Updated 4 hours ago

Ground ~20,000 ft ~40,000 ft Winds

METAR

KCZT 250855Z AUTO 12005KT 10SM CLR 24/21 A2994 RMK AO2

TAF

Not found

Frequencies

Unicom 122.80 MHz CTAF/UNICOM
Warning: Do not use this data for real-world aviation or navigation. No guarantee of current accuracy is given.